createdAt,value
2018-12-30T00:00:13.693Z,95983.72
2018-12-30T00:02:43.184Z,95973.13
2018-12-30T00:05:13.154Z,95979.21
2018-12-30T00:07:42.647Z,95987.80
2018-12-30T00:10:12.169Z,95981.62
2018-12-30T00:12:41.657Z,95988.28
2018-12-30T00:15:11.562Z,95991.50
2018-12-30T00:17:41.040Z,95984.02
2018-12-30T00:20:10.596Z,95983.47
2018-12-30T00:22:40.106Z,95978.30
2018-12-30T00:25:09.620Z,95972.14
2018-12-30T00:27:39.115Z,95975.55
2018-12-30T00:30:09.765Z,95990.14
2018-12-30T00:32:39.437Z,95990.34
2018-12-30T00:35:08.924Z,95994.02
2018-12-30T00:37:38.411Z,95991.53
2018-12-30T00:40:08.062Z,95989.30
2018-12-30T00:42:37.926Z,95986.82
2018-12-30T00:45:07.420Z,95985.92
2018-12-30T00:47:37.135Z,95988.95
2018-12-30T00:50:06.707Z,95987.03
2018-12-30T00:52:36.201Z,95991.44
2018-12-30T00:55:06.147Z,96009.44
2018-12-30T00:57:35.735Z,96007.70
2018-12-30T01:00:08.288Z,96023.95
2018-12-30T01:02:37.807Z,96025.32
2018-12-30T01:05:07.432Z,96027.27
2018-12-30T01:07:37.096Z,96030.41
2018-12-30T01:10:09.167Z,96023.41
2018-12-30T01:12:38.710Z,96015.00
2018-12-30T01:15:08.262Z,96039.09
2018-12-30T01:17:37.827Z,96030.06
2018-12-30T01:20:07.324Z,96034.77
2018-12-30T01:22:37.757Z,96052.05
2018-12-30T01:25:07.488Z,96046.30
2018-12-30T01:27:37.073Z,96039.38
2018-12-30T01:30:07.894Z,96035.88
2018-12-30T01:32:37.392Z,96028.84
2018-12-30T01:35:07.019Z,96038.08
2018-12-30T01:37:36.557Z,96039.30
2018-12-30T01:40:06.434Z,96048.52
2018-12-30T01:42:35.936Z,96036.89
2018-12-30T01:45:06.251Z,96040.77
2018-12-30T01:47:35.760Z,96045.66
2018-12-30T01:50:06.157Z,96045.86
2018-12-30T01:52:35.697Z,96048.91
2018-12-30T01:55:05.691Z,96050.66
2018-12-30T01:57:35.200Z,96050.83
2018-12-30T02:00:06.200Z,96050.28
2018-12-30T02:02:35.703Z,96052.86
2018-12-30T02:05:05.516Z,96060.36
2018-12-30T02:07:35.003Z,96059.34
2018-12-30T02:10:06.296Z,96060.09
2018-12-30T02:12:35.815Z,96067.09
2018-12-30T02:15:05.821Z,96058.13
2018-12-30T02:17:35.312Z,96056.66
2018-12-30T02:20:05.932Z,96048.62
2018-12-30T02:22:35.642Z,96054.06
2018-12-30T02:25:05.354Z,96041.69
2018-12-30T02:27:34.837Z,96038.81
2018-12-30T02:30:05.188Z,96039.73
2018-12-30T02:32:34.701Z,96044.45
2018-12-30T02:35:04.360Z,96035.39
2018-12-30T02:37:33.869Z,96028.65
2018-12-30T02:40:03.429Z,96027.55
2018-12-30T02:42:32.939Z,96032.88
2018-12-30T02:45:02.428Z,96032.72
2018-12-30T02:47:31.936Z,96033.91
2018-12-30T02:50:02.661Z,96030.67
2018-12-30T02:52:32.159Z,96032.53
2018-12-30T02:55:01.658Z,96037.98
2018-12-30T02:57:31.324Z,96031.34
2018-12-30T03:00:00.818Z,96039.84
2018-12-30T03:02:31.309Z,96025.04
2018-12-30T03:05:00.796Z,96020.78
2018-12-30T03:07:30.303Z,96022.72
2018-12-30T03:09:59.796Z,96021.53
2018-12-30T03:12:29.296Z,96016.70
2018-12-30T03:14:59.605Z,96016.52
2018-12-30T03:17:30.163Z,96017.63
2018-12-30T03:19:59.755Z,96013.02
2018-12-30T03:22:29.238Z,96007.83
2018-12-30T03:24:58.741Z,96007.14
2018-12-30T03:27:28.861Z,96008.25
2018-12-30T03:29:58.351Z,96007.79
2018-12-30T03:32:27.851Z,96005.27
2018-12-30T03:34:57.334Z,96019.37
2018-12-30T03:37:26.819Z,96013.34
2018-12-30T03:39:57.056Z,96009.09
2018-12-30T03:42:26.608Z,96017.13
2018-12-30T03:44:56.130Z,96011.82
2018-12-30T03:47:25.615Z,96001.77
2018-12-30T03:49:55.397Z,96002.35
2018-12-30T03:52:26.146Z,96006.23
2018-12-30T03:54:55.648Z,96001.08
2018-12-30T03:57:25.150Z,95998.87
2018-12-30T03:59:54.659Z,95997.25
2018-12-30T04:02:24.154Z,96000.88
2018-12-30T04:04:54.902Z,96001.96
2018-12-30T04:07:24.402Z,96002.16
2018-12-30T04:09:53.906Z,96003.34
2018-12-30T04:12:23.403Z,96005.97
2018-12-30T04:14:52.909Z,96005.02
2018-12-30T04:17:22.443Z,95999.37
2018-12-30T04:19:51.933Z,96004.55
2018-12-30T04:22:21.467Z,96006.30
2018-12-30T04:24:50.978Z,96015.18
2018-12-30T04:27:22.108Z,96009.66
2018-12-30T04:29:51.878Z,96013.92
2018-12-30T04:32:21.374Z,96017.89
2018-12-30T04:34:50.889Z,96011.98
2018-12-30T04:37:20.405Z,96020.20
2018-12-30T04:39:49.915Z,96022.37
2018-12-30T04:42:20.184Z,96020.20
2018-12-30T04:44:49.692Z,96023.91
2018-12-30T04:47:19.184Z,96027.70
2018-12-30T04:49:48.697Z,96028.16
2018-12-30T04:52:25.411Z,96031.17
2018-12-30T04:54:49.436Z,96019.37
2018-12-30T04:57:18.924Z,96022.42
2018-12-30T04:59:48.437Z,96028.70
2018-12-30T05:02:17.930Z,96035.81
2018-12-30T05:04:47.461Z,96037.11
2018-12-30T05:07:17.252Z,96038.98
2018-12-30T05:09:46.756Z,96043.31
2018-12-30T05:12:29.572Z,96037.60
2018-12-30T05:14:59.087Z,95925.69
2018-12-30T05:17:28.644Z,96033.49
2018-12-30T05:19:58.491Z,96038.89
2018-12-30T05:22:33.797Z,96042.91
2018-12-30T05:24:59.262Z,96048.95
2018-12-30T05:27:28.778Z,96052.64
2018-12-30T05:29:58.295Z,96052.95
2018-12-30T05:32:27.853Z,96052.75
2018-12-30T05:34:57.345Z,96056.34
2018-12-30T05:37:26.842Z,96054.48
2018-12-30T05:39:56.353Z,96061.89
2018-12-30T05:42:25.864Z,96060.60
2018-12-30T05:44:55.388Z,96065.59
2018-12-30T05:47:24.869Z,96063.22
2018-12-30T05:49:54.382Z,96072.47
2018-12-30T05:52:23.877Z,96060.22
2018-12-30T05:54:53.519Z,96065.52
2018-12-30T05:57:23.011Z,96071.34
2018-12-30T05:59:52.546Z,96073.00
2018-12-30T06:02:22.213Z,96070.87
2018-12-30T06:04:51.793Z,96072.47
2018-12-30T06:07:21.283Z,96080.59
2018-12-30T06:09:50.794Z,96082.72
2018-12-30T06:12:20.293Z,96078.83
2018-12-30T06:14:49.973Z,96079.75
2018-12-30T06:17:19.466Z,96084.73
2018-12-30T06:19:48.975Z,96088.00
2018-12-30T06:22:18.466Z,96085.56
2018-12-30T06:24:48.034Z,96095.38
2018-12-30T06:27:18.225Z,96106.73
2018-12-30T06:29:47.750Z,96097.49
2018-12-30T06:32:17.237Z,96109.69
2018-12-30T06:34:46.819Z,96112.09
2018-12-30T06:37:16.308Z,96117.56
2018-12-30T06:39:46.404Z,96113.22
2018-12-30T06:42:15.876Z,96113.30
2018-12-30T06:44:45.384Z,96112.77
2018-12-30T06:47:14.874Z,96109.42
2018-12-30T06:49:44.371Z,96108.97
2018-12-30T06:52:14.604Z,96110.25
2018-12-30T06:54:44.117Z,96110.70
2018-12-30T06:57:13.683Z,96127.26
2018-12-30T06:59:43.180Z,96127.17
2018-12-30T07:02:12.750Z,96136.06
2018-12-30T07:04:42.241Z,96139.20
2018-12-30T07:07:11.742Z,96148.42
2018-12-30T07:09:41.255Z,96146.23
2018-12-30T07:12:10.765Z,96144.56
2018-12-30T07:14:40.264Z,96153.06
2018-12-30T07:17:11.005Z,96149.63
2018-12-30T07:19:40.549Z,96149.27
2018-12-30T07:22:10.267Z,96153.44
2018-12-30T07:24:39.763Z,96158.34
2018-12-30T07:27:09.247Z,96169.22
2018-12-30T07:29:39.648Z,96168.78
2018-12-30T07:32:09.140Z,96168.78
2018-12-30T07:34:38.650Z,96167.00
2018-12-30T07:37:08.154Z,96169.59
2018-12-30T07:39:37.637Z,96162.03
2018-12-30T07:42:07.806Z,96180.50
2018-12-30T07:44:37.318Z,96183.55
2018-12-30T07:47:06.813Z,96179.59
2018-12-30T07:49:36.317Z,96181.09
2018-12-30T07:52:05.830Z,96191.97
2018-12-30T07:54:36.157Z,96198.72
2018-12-30T07:57:05.726Z,96187.92
2018-12-30T07:59:35.215Z,96199.09
2018-12-30T08:02:04.762Z,96204.43
2018-12-30T08:04:34.283Z,96197.34
2018-12-30T08:07:03.795Z,96202.52
2018-12-30T08:09:33.301Z,96208.36
2018-12-30T08:12:02.809Z,96207.95
2018-12-30T08:14:32.484Z,96224.14
2018-12-30T08:17:01.985Z,96221.55
2018-12-30T08:19:32.431Z,96222.95
2018-12-30T08:22:01.942Z,96226.83
2018-12-30T08:24:31.430Z,96236.34
2018-12-30T08:27:00.940Z,96246.07
2018-12-30T08:29:30.575Z,96257.41
2018-12-30T08:32:00.642Z,96263.55
2018-12-30T08:34:30.143Z,96260.51
2018-12-30T08:36:59.655Z,96254.13
2018-12-30T08:39:29.156Z,96255.88
2018-12-30T08:41:58.736Z,96269.21
2018-12-30T08:44:28.914Z,96274.28
2018-12-30T08:46:58.488Z,96274.13
2018-12-30T08:49:27.992Z,96279.59
2018-12-30T08:51:57.495Z,96275.06
2018-12-30T08:54:26.999Z,96294.56
2018-12-30T08:56:56.483Z,96287.09
2018-12-30T08:59:26.012Z,96289.88
2018-12-30T09:01:55.525Z,96310.60
2018-12-30T09:04:25.014Z,96311.59
2018-12-30T09:06:54.533Z,96315.66
2018-12-30T09:09:25.301Z,96309.58
2018-12-30T09:11:54.810Z,96320.05
2018-12-30T09:14:24.297Z,96331.33
2018-12-30T09:16:53.834Z,96324.20
2018-12-30T09:19:23.338Z,96328.00
2018-12-30T09:21:53.945Z,96338.34
2018-12-30T09:24:23.432Z,96341.70
2018-12-30T09:26:52.939Z,96340.84
2018-12-30T09:29:22.471Z,96335.30
2018-12-30T09:31:51.956Z,96336.16
2018-12-30T09:34:22.342Z,96341.42
2018-12-30T09:36:53.344Z,96334.31
2018-12-30T09:39:22.985Z,96337.07
2018-12-30T09:41:52.511Z,96337.45
2018-12-30T09:44:22.003Z,96333.29
2018-12-30T09:46:51.500Z,96333.94
2018-12-30T09:49:21.040Z,96342.45
2018-12-30T09:51:50.550Z,96343.95
2018-12-30T09:54:20.097Z,96343.00
2018-12-30T09:56:49.613Z,96350.96
2018-12-30T09:59:19.119Z,96360.31
2018-12-30T10:01:48.633Z,96353.19
2018-12-30T10:04:18.161Z,96370.31
2018-12-30T10:06:47.625Z,96373.77
2018-12-30T10:09:17.212Z,96377.91
2018-12-30T10:11:46.738Z,96378.02
2018-12-30T10:14:16.230Z,96384.20
2018-12-30T10:16:45.729Z,96392.09
2018-12-30T10:19:15.257Z,96391.62
2018-12-30T10:21:44.784Z,96392.98
2018-12-30T10:24:14.268Z,96387.75
2018-12-30T10:26:43.787Z,96380.52
2018-12-30T10:29:13.280Z,96390.97
2018-12-30T10:31:42.793Z,96391.23
2018-12-30T10:34:12.321Z,96396.24
2018-12-30T10:36:41.808Z,96401.88
2018-12-30T10:39:11.314Z,96403.48
2018-12-30T10:41:40.842Z,96404.97
2018-12-30T10:44:10.371Z,96400.23
2018-12-30T10:46:39.853Z,96403.20
2018-12-30T10:49:09.389Z,96400.89
2018-12-30T10:51:38.875Z,96399.14
2018-12-30T10:54:08.390Z,96405.24
2018-12-30T10:56:37.889Z,96399.02
2018-12-30T10:59:07.424Z,96414.67
2018-12-30T11:01:36.908Z,96414.33
2018-12-30T11:04:06.442Z,96410.98
2018-12-30T11:06:35.926Z,96406.07
2018-12-30T11:09:07.638Z,96413.39
2018-12-30T11:11:37.177Z,96418.22
2018-12-30T11:14:06.980Z,96410.32
2018-12-30T11:16:37.721Z,96418.59
2018-12-30T11:19:07.252Z,96423.10
2018-12-30T11:21:36.755Z,96427.91
2018-12-30T11:24:08.741Z,96422.57
2018-12-30T11:26:37.498Z,96420.88
2018-12-30T11:29:07.051Z,96424.31
2018-12-30T11:31:36.548Z,96414.05
2018-12-30T11:34:06.166Z,96419.69
2018-12-30T11:36:35.689Z,96409.78
2018-12-30T11:39:06.412Z,96408.58
2018-12-30T11:41:35.904Z,96401.27
2018-12-30T11:44:05.498Z,96394.48
2018-12-30T11:46:34.991Z,96403.22
2018-12-30T11:49:04.517Z,96403.48
2018-12-30T11:51:34.013Z,96405.05
2018-12-30T11:54:03.551Z,96405.25
2018-12-30T11:56:33.037Z,96404.02
2018-12-30T11:59:02.572Z,96403.02
2018-12-30T12:01:32.080Z,96408.66
2018-12-30T12:04:01.609Z,96406.73
2018-12-30T12:06:31.119Z,96406.52
2018-12-30T12:09:00.640Z,96407.19
2018-12-30T12:11:31.038Z,96414.77
2018-12-30T12:14:00.568Z,96407.83
2018-12-30T12:16:30.174Z,96401.52
2018-12-30T12:18:59.731Z,96396.53
2018-12-30T12:21:29.218Z,96396.17
2018-12-30T12:23:58.840Z,96395.41
2018-12-30T12:26:28.389Z,96396.80
2018-12-30T12:28:57.919Z,96401.06
2018-12-30T12:31:27.461Z,96402.91
2018-12-30T12:33:57.199Z,96410.80
2018-12-30T12:36:26.685Z,96414.23
2018-12-30T12:38:56.184Z,96420.80
2018-12-30T12:41:25.740Z,96418.40
2018-12-30T12:43:55.772Z,96420.25
2018-12-30T12:46:25.284Z,96416.55
2018-12-30T12:48:54.807Z,96414.88
2018-12-30T12:51:24.354Z,96415.62
2018-12-30T12:53:53.886Z,96420.07
2018-12-30T12:56:24.045Z,96415.54
2018-12-30T12:58:53.580Z,96411.17
2018-12-30T13:01:23.064Z,96420.52
2018-12-30T13:03:52.601Z,96427.67
2018-12-30T13:06:22.083Z,96428.95
2018-12-30T13:08:52.244Z,96434.13
2018-12-30T13:11:21.775Z,96436.81
2018-12-30T13:13:51.306Z,96425.55
2018-12-30T13:16:20.909Z,96433.41
2018-12-30T13:18:50.442Z,96430.72
2018-12-30T13:21:20.476Z,96435.91
2018-12-30T13:23:50.012Z,96433.48
2018-12-30T13:26:19.502Z,96438.33
2018-12-30T13:28:49.069Z,96448.03
2018-12-30T13:31:18.618Z,96453.31
2018-12-30T13:33:48.717Z,96448.03
2018-12-30T13:36:18.241Z,96449.23
2018-12-30T13:38:47.738Z,96449.98
2018-12-30T13:41:17.277Z,96459.81
2018-12-30T13:43:46.833Z,96461.00
2018-12-30T13:46:16.377Z,96469.52
2018-12-30T13:48:45.862Z,96471.56
2018-12-30T13:51:15.396Z,96462.95
2018-12-30T13:53:44.883Z,96479.34
2018-12-30T13:56:14.722Z,96477.88
2018-12-30T13:58:45.319Z,96483.60
2018-12-30T14:01:14.886Z,96488.61
2018-12-30T14:03:44.446Z,96493.45
2018-12-30T14:06:13.990Z,96484.63
2018-12-30T14:08:43.540Z,96485.66
2018-12-30T14:11:13.419Z,96485.84
2018-12-30T14:13:42.910Z,96489.37
2018-12-30T14:16:12.491Z,96490.94
2018-12-30T14:18:42.010Z,96485.92
2018-12-30T14:21:11.497Z,96489.55
2018-12-30T14:23:41.017Z,96507.16
2018-12-30T14:26:10.748Z,96502.63
2018-12-30T14:28:40.231Z,96495.94
2018-12-30T14:31:09.794Z,96505.13
2018-12-30T14:33:39.341Z,96513.55
2018-12-30T14:36:09.842Z,96513.55
2018-12-30T14:38:39.366Z,96513.27
2018-12-30T14:41:08.864Z,96517.33
2018-12-30T14:43:38.395Z,96523.09
2018-12-30T14:46:07.890Z,96520.77
2018-12-30T14:48:38.059Z,96527.53
2018-12-30T14:51:07.661Z,96530.00
2018-12-30T14:53:37.150Z,96533.44
2018-12-30T14:56:06.636Z,96513.52
2018-12-30T14:58:36.171Z,96518.80
2018-12-30T15:01:06.349Z,96509.07
2018-12-30T15:03:35.886Z,96517.31
2018-12-30T15:06:05.370Z,96513.05
2018-12-30T15:08:35.002Z,96511.95
2018-12-30T15:11:04.529Z,96508.08
2018-12-30T15:13:34.504Z,96497.77
2018-12-30T15:16:04.095Z,96502.77
2018-12-30T15:18:33.689Z,96519.73
2018-12-30T15:21:03.117Z,96523.97
2018-12-30T15:23:32.679Z,96528.56
2018-12-30T15:26:02.162Z,96522.92
2018-12-30T15:28:31.692Z,96525.73
2018-12-30T15:31:01.181Z,96529.61
2018-12-30T15:33:31.208Z,96525.91
2018-12-30T15:36:00.698Z,96528.52
2018-12-30T15:38:30.776Z,96525.37
2018-12-30T15:41:00.259Z,96533.16
2018-12-30T15:43:29.749Z,96534.55
2018-12-30T15:45:59.300Z,96527.97
2018-12-30T15:48:28.793Z,96524.36
2018-12-30T15:50:59.020Z,96529.08
2018-12-30T15:53:28.570Z,96525.93
2018-12-30T15:55:58.063Z,96532.45
2018-12-30T15:58:27.597Z,96531.47
2018-12-30T16:00:57.141Z,96538.94
2018-12-30T16:03:27.154Z,96533.61
2018-12-30T16:05:57.795Z,96529.27
2018-12-30T16:08:27.717Z,96531.37
2018-12-30T16:10:57.223Z,96526.92
2018-12-30T16:13:26.726Z,96522.42
2018-12-30T16:15:56.471Z,96514.41
2018-12-30T16:18:26.008Z,96516.34
2018-12-30T16:20:55.570Z,96515.36
2018-12-30T16:23:25.104Z,96508.14
2018-12-30T16:25:54.590Z,96501.59
2018-12-30T16:28:24.695Z,96505.97
2018-12-30T16:30:54.193Z,96502.26
2018-12-30T16:33:23.729Z,96497.14
2018-12-30T16:35:53.214Z,96490.87
2018-12-30T16:38:22.697Z,96492.55
2018-12-30T16:40:52.239Z,96483.20
2018-12-30T16:43:21.762Z,96496.66
2018-12-30T16:45:51.306Z,96497.59
2018-12-30T16:48:20.835Z,96502.22
2018-12-30T16:50:50.320Z,96498.82
2018-12-30T16:53:20.858Z,96507.97
2018-12-30T16:55:50.354Z,96498.78
2018-12-30T16:58:19.889Z,96489.89
2018-12-30T17:00:49.375Z,96481.55
2018-12-30T17:03:18.906Z,96481.38
2018-12-30T17:05:49.000Z,96474.03
2018-12-30T17:08:18.529Z,96477.04
2018-12-30T17:10:48.022Z,96469.44
2018-12-30T17:13:17.792Z,96480.75
2018-12-30T17:15:47.291Z,96487.13
2018-12-30T17:18:18.016Z,96491.86
2018-12-30T17:20:47.808Z,96494.52
2018-12-30T17:23:17.291Z,96493.28
2018-12-30T17:25:46.783Z,96494.59
2018-12-30T17:28:16.317Z,96496.93
2018-12-30T17:30:46.658Z,96492.77
2018-12-30T17:33:16.409Z,96496.62
2018-12-30T17:35:46.294Z,96491.75
2018-12-30T17:38:15.766Z,96489.93
2018-12-30T17:40:45.301Z,96480.58
2018-12-30T17:43:15.926Z,96467.27
2018-12-30T17:45:45.448Z,96473.25
2018-12-30T17:48:14.980Z,96482.05
2018-12-30T17:50:44.462Z,96466.60
2018-12-30T17:53:13.993Z,96478.19
2018-12-30T17:55:50.538Z,96487.33
2018-12-30T17:58:15.468Z,96477.36
2018-12-30T18:00:44.962Z,96482.43
2018-12-30T18:03:14.498Z,96483.49
2018-12-30T18:05:43.990Z,96479.73
2018-12-30T18:08:13.590Z,96484.78
2018-12-30T18:10:43.068Z,96494.00
2018-12-30T18:13:12.636Z,96492.61
2018-12-30T18:15:42.137Z,96502.14
2018-12-30T18:18:11.631Z,96494.48
2018-12-30T18:20:41.177Z,96495.55
2018-12-30T18:23:10.721Z,96498.43
2018-12-30T18:25:40.223Z,96503.38
2018-12-30T18:28:09.752Z,96497.47
2018-12-30T18:30:39.247Z,96501.14
2018-12-30T18:33:08.946Z,96504.34
2018-12-30T18:35:38.479Z,96508.36
2018-12-30T18:38:08.025Z,96515.38
2018-12-30T18:40:37.503Z,96514.73
2018-12-30T18:43:07.057Z,96527.83
2018-12-30T18:45:36.543Z,96532.69
2018-12-30T18:48:06.104Z,96528.88
2018-12-30T18:50:35.647Z,96511.77
2018-12-30T18:53:05.198Z,96508.92
2018-12-30T18:55:34.754Z,96499.02
2018-12-30T18:58:05.396Z,96494.77
2018-12-30T19:00:34.887Z,96493.75
2018-12-30T19:03:04.439Z,96491.15
2018-12-30T19:05:34.065Z,96497.72
2018-12-30T19:08:42.034Z,96508.66
2018-12-30T19:11:11.579Z,96452.54
2018-12-30T19:13:41.073Z,96508.36
2018-12-30T19:16:10.569Z,96516.02
2018-12-30T19:18:40.106Z,96525.46
2018-12-30T19:21:09.646Z,96535.34
2018-12-30T19:23:39.191Z,96536.33
2018-12-30T19:26:14.312Z,96531.20
2018-12-30T19:28:39.963Z,96531.97
2018-12-30T19:31:09.456Z,96522.11
2018-12-30T19:33:39.067Z,96512.85
2018-12-30T19:36:08.627Z,96512.81
2018-12-30T19:38:38.124Z,96514.86
2018-12-30T19:41:07.665Z,96514.97
2018-12-30T19:43:37.225Z,96507.05
2018-12-30T19:46:06.758Z,96516.62
2018-12-30T19:48:36.236Z,96529.95
2018-12-30T19:51:25.247Z,96521.23
2018-12-30T19:53:54.771Z,96512.61
2018-12-30T19:56:24.245Z,96520.38
2018-12-30T19:58:53.730Z,96518.36
2018-12-30T20:01:23.265Z,96520.84
2018-12-30T20:03:52.740Z,96516.05
2018-12-30T20:06:22.344Z,96507.81
2018-12-30T20:08:51.842Z,96514.51
2018-12-30T20:11:21.400Z,96517.73
2018-12-30T20:13:50.921Z,96513.38
2018-12-30T20:16:20.452Z,96506.07
2018-12-30T20:18:49.935Z,96521.90
2018-12-30T20:21:19.472Z,96522.36
2018-12-30T20:23:48.960Z,96524.94
2018-12-30T20:26:18.491Z,96522.75
2018-12-30T20:28:47.980Z,96521.28
2018-12-30T20:31:17.509Z,96514.97
2018-12-30T20:33:47.008Z,96502.75
2018-12-30T20:36:16.536Z,96501.70
2018-12-30T20:38:46.029Z,96499.66
2018-12-30T20:41:15.561Z,96497.53
2018-12-30T20:43:45.144Z,96498.67
2018-12-30T20:46:14.644Z,96498.05
2018-12-30T20:48:44.133Z,96502.38
2018-12-30T20:51:13.769Z,96498.30
2018-12-30T20:53:43.252Z,96501.40
2018-12-30T20:56:12.790Z,96499.07
2018-12-30T20:58:42.274Z,96498.85
2018-12-30T21:01:11.807Z,96506.58
2018-12-30T21:03:41.287Z,96500.28
2018-12-30T21:06:10.836Z,96501.83
2018-12-30T21:08:40.319Z,96504.19
2018-12-30T21:11:29.198Z,96506.86
2018-12-30T21:13:58.711Z,96509.13
2018-12-30T21:16:28.245Z,96503.34
2018-12-30T21:18:57.741Z,96495.55
2018-12-30T21:21:27.312Z,96495.73
2018-12-30T21:23:56.799Z,96496.39
2018-12-30T21:26:26.357Z,96485.81
2018-12-30T21:28:55.868Z,96481.19
2018-12-30T21:31:25.398Z,96468.78
2018-12-30T21:33:54.901Z,96471.58
2018-12-30T21:36:24.556Z,96465.98
2018-12-30T21:38:54.047Z,96472.03
2018-12-30T21:41:23.582Z,96472.92
2018-12-30T21:43:53.086Z,96470.05
2018-12-30T21:46:22.620Z,96476.72
2018-12-30T21:48:52.118Z,96477.14
2018-12-30T21:51:21.668Z,96476.79
2018-12-30T21:53:51.433Z,96488.52
2018-12-30T21:56:20.924Z,96493.71
2018-12-30T21:58:50.411Z,96495.81
2018-12-30T22:01:19.944Z,96495.53
2018-12-30T22:03:49.459Z,96499.17
2018-12-30T22:06:19.001Z,96496.84
2018-12-30T22:08:48.495Z,96502.31
2018-12-30T22:11:19.249Z,96497.30
2018-12-30T22:13:48.738Z,96496.56
2018-12-30T22:16:18.270Z,96495.84
2018-12-30T22:18:47.760Z,96499.59
2018-12-30T22:21:17.292Z,96498.12
2018-12-30T22:23:47.487Z,96501.65
2018-12-30T22:26:17.102Z,96497.45
2018-12-30T22:28:46.615Z,96494.83
2018-12-30T22:31:16.147Z,96500.92
2018-12-30T22:33:45.636Z,96496.30
2018-12-30T22:36:15.806Z,96492.94
2018-12-30T22:38:45.309Z,96496.89
2018-12-30T22:41:14.821Z,96492.73
2018-12-30T22:43:44.334Z,96485.69
2018-12-30T22:46:13.820Z,96483.66
2018-12-30T22:48:43.415Z,96484.39
2018-12-30T22:51:12.933Z,96474.80
2018-12-30T22:53:42.430Z,96481.69
2018-12-30T22:56:12.069Z,96475.04
2018-12-30T22:58:41.613Z,96472.85
2018-12-30T23:01:12.857Z,96483.33
2018-12-30T23:03:42.392Z,96492.19
2018-12-30T23:06:11.986Z,96501.53
2018-12-30T23:08:41.484Z,96501.25
2018-12-30T23:11:11.007Z,96509.92
2018-12-30T23:13:41.033Z,96495.39
2018-12-30T23:16:10.524Z,96497.47
2018-12-30T23:18:40.040Z,96503.44
2018-12-30T23:21:09.533Z,96508.33
2018-12-30T23:23:39.050Z,96507.38
2018-12-30T23:26:08.552Z,96503.66
2018-12-30T23:28:38.059Z,96497.25
2018-12-30T23:31:07.559Z,96497.03
2018-12-30T23:33:37.067Z,96488.13
2018-12-30T23:36:06.589Z,96475.73
2018-12-30T23:38:37.323Z,96470.50
2018-12-30T23:41:06.828Z,96465.61
2018-12-30T23:43:36.342Z,96471.19
2018-12-30T23:46:05.833Z,96466.78
2018-12-30T23:48:35.344Z,96468.87
2018-12-30T23:51:05.012Z,96474.43
2018-12-30T23:53:34.474Z,96466.83
2018-12-30T23:56:03.960Z,96468.88
2018-12-30T23:58:33.467Z,96465.84
